Time;durP1;ratioP1;P1;durP2;ratioP2;P2;SDS_P1;SDS_P2;PMS_P1;PMS_P2;Temp;Humidity;BMP_temperature;BMP_pressure;BME280_temperature;BME280_humidity;BME280_pressure;Samples;Min_cycle;Max_cycle;Signal;HPM_P1;HPM_P2
2021/11/19 00:00:49;;;;;;;;;17.75;17.75;;;;;11.46;68.79;102985.22;5016265;28;46008;-79
2021/11/19 00:03:17;;;;;;;;;21.67;18.67;;;;;11.45;69.02;102986.97;5010043;28;45500;-79
2021/11/19 00:05:43;;;;;;;;;17.33;17.00;;;;;11.47;68.93;102984.38;5015652;28;45624;-79
2021/11/19 00:08:09;;;;;;;;;20.75;16.25;;;;;11.47;68.79;102990.56;5018777;28;45472;-79
2021/11/19 00:10:34;;;;;;;;;20.33;19.00;;;;;11.47;68.70;103000.25;5016835;28;47169;-79
2021/11/19 00:13:00;;;;;;;;;22.00;16.00;;;;;11.45;68.95;102986.97;5014083;28;45520;-79
2021/11/19 00:15:26;;;;;;;;;22.00;19.33;;;;;11.47;68.67;102993.19;5021397;28;58863;-79
2021/11/19 00:17:54;;;;;;;;;19.67;17.67;;;;;11.48;68.96;102987.06;5000973;28;45686;-79
2021/11/19 00:20:28;;;;;;;;;20.00;15.33;;;;;11.44;68.63;102981.56;5022000;28;46448;-79
2021/11/19 00:22:58;;;;;;;;;24.75;20.50;;;;;11.44;68.82;102982.47;5028259;28;45570;-79
2021/11/19 00:25:26;;;;;;;;;20.25;15.00;;;;;11.48;68.61;102981.78;5024037;28;45309;-79
2021/11/19 00:27:55;;;;;;;;;17.67;15.67;;;;;11.46;68.78;102977.28;5018707;28;45304;-79
2021/11/19 00:30:21;;;;;;;;;16.67;16.00;;;;;11.49;68.69;102977.38;5024353;28;46263;-79
2021/11/19 00:32:46;;;;;;;;;17.00;14.33;;;;;11.49;68.72;102972.09;5023389;28;45590;-79
2021/11/19 00:35:14;;;;;;;;;21.00;16.00;;;;;11.49;68.79;102985.31;5022054;28;45363;-79
2021/11/19 00:37:42;;;;;;;;;21.00;18.00;;;;;11.51;68.68;102983.66;5021901;28;45528;-78
2021/11/19 00:40:13;;;;;;;;;18.67;17.00;;;;;11.51;68.61;102975.72;5029015;28;47385;-79
2021/11/19 00:42:38;;;;;;;;;18.67;15.33;;;;;11.52;68.51;102973.13;5020924;28;45503;-79
2021/11/19 00:45:04;;;;;;;;;15.67;11.33;;;;;11.53;68.69;102976.69;5032183;28;45499;-81
2021/11/19 00:47:29;;;;;;;;;16.00;13.33;;;;;11.54;68.54;102976.72;5035221;28;45563;-78
2021/11/19 00:49:59;;;;;;;;;23.33;17.00;;;;;11.55;68.58;102986.47;5019199;28;58974;-79
2021/11/19 00:52:25;;;;;;;;;19.33;14.67;;;;;11.55;68.66;102986.47;5025822;28;45379;-79
2021/11/19 00:54:50;;;;;;;;;22.33;16.33;;;;;11.56;68.58;102984.75;5016979;28;45302;-79
2021/11/19 00:57:20;;;;;;;;;21.67;16.00;;;;;11.57;68.43;102983.91;5016838;28;51219;-79
2021/11/19 00:59:45;;;;;;;;;22.00;17.00;;;;;11.59;68.60;102989.25;5015689;28;48665;-79
2021/11/19 01:02:26;;;;;;;;;21.67;17.67;;;;;11.58;68.44;102983.06;5017053;28;45433;-79
2021/11/19 01:04:56;;;;;;;;;15.33;14.67;;;;;11.59;68.66;102983.97;5016837;28;45483;-80
2021/11/19 01:07:23;;;;;;;;;20.33;16.33;;;;;11.55;68.45;102972.34;5016007;28;45144;-79
2021/11/19 01:09:51;;;;;;;;;17.00;15.33;;;;;11.61;68.64;102971.69;5015595;28;46402;-79
2021/11/19 01:12:24;;;;;;;;;16.67;15.00;;;;;11.62;68.46;102970.88;5017270;28;46165;-79
2021/11/19 01:14:56;;;;;;;;;20.33;16.00;;;;;11.64;68.43;102977.13;5029431;28;45453;-79
2021/11/19 01:17:27;;;;;;;;;17.00;16.67;;;;;11.64;68.69;102972.72;5016210;28;45501;-79
2021/11/19 01:19:54;;;;;;;;;23.67;20.67;;;;;11.62;68.30;102958.53;5005567;28;46967;-79
2021/11/19 01:22:28;;;;;;;;;16.33;16.00;;;;;11.62;68.24;102962.94;5023434;28;45472;-79
2021/11/19 01:24:55;;;;;;;;;19.00;14.67;;;;;11.59;68.38;102952.22;5014279;28;45555;-79
2021/11/19 01:27:21;;;;;;;;;19.00;16.33;;;;;11.62;68.59;102957.66;5018541;28;45468;-79
2021/11/19 01:29:47;;;;;;;;;25.67;17.00;;;;;11.66;68.46;102957.81;5027779;28;46438;-79
2021/11/19 01:32:15;;;;;;;;;16.00;14.33;;;;;11.67;68.25;102950.78;5021514;28;45263;-79
2021/11/19 01:34:40;;;;;;;;;21.33;15.00;;;;;11.61;68.24;102950.53;5026775;28;45451;-79
2021/11/19 01:37:09;;;;;;;;;17.67;15.00;;;;;11.67;68.34;102954.34;5034246;28;45326;-79
2021/11/19 01:39:38;;;;;;;;;19.00;15.33;;;;;11.69;68.29;102952.66;5023141;28;46714;-78
2021/11/19 01:42:07;;;;;;;;;20.00;15.33;;;;;11.69;68.41;102949.09;5019289;28;45513;-79
2021/11/19 01:44:36;;;;;;;;;21.00;17.67;;;;;11.69;68.42;102954.41;5016083;28;45251;-79
2021/11/19 01:47:14;;;;;;;;;14.67;12.33;;;;;11.70;68.76;102961.50;5013940;28;45578;-79
2021/11/19 01:49:40;;;;;;;;;16.33;15.33;;;;;11.71;68.60;102952.69;5015999;28;47499;-79
2021/11/19 01:52:19;;;;;;;;;17.67;16.33;;;;;11.72;68.89;102954.53;5015655;28;57463;-79
2021/11/19 01:54:47;;;;;;;;;20.67;15.00;;;;;11.72;68.78;102947.50;5016157;28;45389;-79
2021/11/19 01:57:28;;;;;;;;;20.33;17.00;;;;;11.73;68.65;102953.69;5023743;28;45319;-79
2021/11/19 01:59:55;;;;;;;;;25.33;17.33;;;;;11.74;68.84;102947.53;5008045;28;46643;-79
2021/11/19 02:02:38;;;;;;;;;19.33;16.67;;;;;11.73;68.74;102949.28;5023323;28;45425;-79
2021/11/19 02:05:14;;;;;;;;;19.67;16.67;;;;;11.74;68.94;102961.69;5021925;28;45569;-78
2021/11/19 02:07:50;;;;;;;;;22.00;15.67;;;;;11.74;68.68;102950.19;5022944;28;45379;-79
2021/11/19 02:10:53;;;;;;;;;17.00;15.00;;;;;11.75;68.92;102952.00;5021821;28;47484;-79
2021/11/19 02:13:44;;;;;;;;;24.67;20.00;;;;;11.74;68.82;102950.19;5022408;28;46657;-79
2021/11/19 02:16:19;;;;;;;;;20.33;15.00;;;;;11.75;68.76;102944.94;5021449;28;45300;-79
2021/11/19 02:19:06;;;;;;;;;22.33;17.00;;;;;11.76;68.88;102945.84;5021454;28;45252;-80
2021/11/19 02:21:34;;;;;;;;;16.33;16.00;;;;;11.74;68.66;102935.22;5021266;28;48085;-79
2021/11/19 02:24:22;;;;;;;;;19.33;15.00;;;;;11.77;68.67;102942.34;5024428;28;45349;-78
2021/11/19 02:26:58;;;;;;;;;14.00;12.33;;;;;11.77;68.56;102943.28;5028795;28;45311;-79
2021/11/19 02:29:28;;;;;;;;;15.00;13.33;;;;;11.78;68.62;102945.09;5016036;28;45527;-79
2021/11/19 02:32:11;;;;;;;;;15.33;13.67;;;;;11.79;68.63;102945.97;5020508;28;46256;-78
2021/11/19 02:34:37;;;;;;;;;16.67;15.33;;;;;11.75;68.55;102939.66;5031096;28;45319;-79
2021/11/19 02:37:12;;;;;;;;;14.67;11.67;;;;;11.75;68.64;102936.09;5035750;28;45908;-79
2021/11/19 02:39:43;;;;;;;;;18.00;15.67;;;;;11.67;68.79;102919.03;5015791;28;45381;-79
2021/11/19 02:42:11;;;;;;;;;15.33;13.33;;;;;11.81;69.10;102939.00;5030117;28;46188;-79
2021/11/19 02:44:38;;;;;;;;;19.67;15.33;;;;;11.72;68.61;102928.97;5026874;28;45523;-79
2021/11/19 02:47:10;;;;;;;;;23.00;12.00;;;;;11.79;68.81;102938.03;5024198;28;45430;-80
2021/11/19 02:49:38;;;;;;;;;14.33;13.33;;;;;11.80;68.70;102945.13;5022369;28;45486;-79
2021/11/19 02:52:04;;;;;;;;;16.00;12.00;;;;;11.80;68.72;102934.56;5025639;28;48023;-78
2021/11/19 02:54:30;;;;;;;;;23.67;14.00;;;;;11.80;68.88;102940.75;5020999;28;45386;-78
2021/11/19 02:56:56;;;;;;;;;13.00;12.33;;;;;11.76;69.00;102932.63;5024474;28;45421;-78
2021/11/19 02:59:22;;;;;;;;;20.67;15.67;;;;;11.78;68.82;102936.25;5026531;28;45524;-80
2021/11/19 03:01:52;;;;;;;;;22.33;15.33;;;;;11.84;68.95;102944.47;5020396;28;48361;-79
2021/11/19 03:04:34;;;;;;;;;23.33;15.00;;;;;11.83;68.94;102928.53;5021464;28;45506;-79
2021/11/19 03:06:59;;;;;;;;;17.00;11.00;;;;;11.83;68.76;102932.06;5034781;28;45257;-79
2021/11/19 03:09:36;;;;;;;;;15.00;11.00;;;;;11.85;68.83;102932.13;5030940;28;45406;-79
2021/11/19 03:12:03;;;;;;;;;20.00;14.00;;;;;11.80;68.78;102914.28;5018576;28;46666;-79
2021/11/19 03:14:29;;;;;;;;;15.67;12.67;;;;;11.85;68.79;102935.66;5018553;28;45358;-80
2021/11/19 03:16:54;;;;;;;;;14.33;11.33;;;;;11.84;68.61;102930.31;5017755;28;45575;-78
2021/11/19 03:19:19;;;;;;;;;15.33;10.00;;;;;11.86;69.01;102926.88;5029059;28;45302;-78
2021/11/19 03:21:45;;;;;;;;;18.67;18.00;;;;;11.86;68.79;102937.47;5023358;28;58435;-78
2021/11/19 03:24:11;;;;;;;;;16.67;15.00;;;;;11.83;68.71;102916.19;5018245;28;45328;-79
2021/11/19 03:26:37;;;;;;;;;17.00;13.00;;;;;11.86;68.77;102921.59;5027146;28;45475;-79
2021/11/19 03:29:04;;;;;;;;;15.33;12.00;;;;;11.88;68.92;102911.97;5027200;28;45279;-79
2021/11/19 03:31:31;;;;;;;;;15.00;12.00;;;;;11.89;69.08;102919.06;5020754;28;46540;-79
2021/11/19 03:33:56;;;;;;;;;14.67;10.67;;;;;11.90;68.81;102917.31;5033756;28;45274;-79
2021/11/19 03:36:22;;;;;;;;;13.00;11.00;;;;;11.90;69.08;102922.63;5029866;28;45333;-79
2021/11/19 03:38:49;;;;;;;;;15.00;11.00;;;;;11.86;68.75;102908.34;5027336;28;45545;-79
2021/11/19 03:41:23;;;;;;;;;15.67;15.00;;;;;11.91;69.04;102922.66;5026100;28;46254;-80
2021/11/19 03:43:55;;;;;;;;;11.33;11.33;;;;;11.92;68.82;102919.16;5018717;28;45591;-80
2021/11/19 03:46:25;;;;;;;;;13.33;11.67;;;;;11.90;68.80;102915.56;5024565;28;45486;-80
2021/11/19 03:48:50;;;;;;;;;15.00;11.00;;;;;11.93;69.11;102915.72;5018512;28;45556;-81
2021/11/19 03:51:25;;;;;;;;;20.33;12.00;;;;;11.88;68.69;102917.28;5028650;28;46468;-83
2021/11/19 03:53:51;;;;;;;;;13.00;10.33;;;;;11.93;68.97;102921.00;5026404;28;45394;-81
2021/11/19 03:56:16;;;;;;;;;14.67;10.33;;;;;11.94;68.88;102919.25;5018696;28;45251;-81
2021/11/19 03:58:44;;;;;;;;;12.00;12.00;;;;;11.94;68.90;102917.50;5017932;28;45144;-81
2021/11/19 04:01:39;;;;;;;;;16.00;15.00;;;;;11.95;68.97;102910.47;5018043;28;46674;-82
2021/11/19 04:04:05;;;;;;;;;17.67;14.00;;;;;11.93;69.14;102905.13;5009448;28;45303;-81
2021/11/19 04:06:31;;;;;;;;;12.00;12.00;;;;;11.93;68.94;102906.84;5018052;28;45385;-81
2021/11/19 04:08:56;;;;;;;;;15.67;12.67;;;;;11.94;69.11;102909.56;5028933;28;45560;-80
2021/11/19 04:11:22;;;;;;;;;12.00;11.00;;;;;11.96;69.05;102909.63;5023689;28;56578;-82
2021/11/19 04:13:48;;;;;;;;;17.67;11.67;;;;;11.91;69.21;102906.78;5009466;28;45373;-82
2021/11/19 04:16:17;;;;;;;;;14.67;11.33;;;;;11.97;68.84;102919.34;5023095;28;45472;-79
2021/11/19 04:18:43;;;;;;;;;17.33;12.33;;;;;11.97;69.13;102916.72;5024426;28;45397;-78
2021/11/19 04:21:09;;;;;;;;;14.33;12.67;;;;;11.95;69.28;102915.75;5004431;28;46464;-79
2021/11/19 04:23:34;;;;;;;;;14.33;11.00;;;;;11.98;69.25;102921.16;5014857;28;45521;-81
2021/11/19 04:26:00;;;;;;;;;14.25;12.50;;;;;11.98;68.99;102916.75;5018530;28;54635;-78
2021/11/19 04:28:26;;;;;;;;;13.00;11.67;;;;;11.95;69.22;102908.72;5029477;28;45475;-80
2021/11/19 04:30:53;;;;;;;;;13.67;12.00;;;;;11.99;68.88;102912.41;5028696;28;46059;-79
2021/11/19 04:33:18;;;;;;;;;14.67;12.33;;;;;11.99;68.92;102910.66;5027541;28;45511;-81
2021/11/19 04:35:45;;;;;;;;;15.67;12.67;;;;;11.94;69.20;102912.22;5028596;28;45507;-80
2021/11/19 04:38:11;;;;;;;;;16.33;14.00;;;;;11.99;69.03;102920.34;5023416;28;45464;-79
2021/11/19 04:40:37;;;;;;;;;18.33;12.67;;;;;11.97;68.81;102903.47;5028430;28;47346;-80
2021/11/19 04:43:03;;;;;;;;;20.00;15.33;;;;;12.01;68.64;102916.88;5027716;28;45298;-82
2021/11/19 04:45:29;;;;;;;;;15.33;12.00;;;;;12.03;68.86;102914.28;4994864;28;45521;-80
2021/11/19 04:47:57;;;;;;;;;17.33;14.67;;;;;11.97;68.67;102907.03;5018694;28;45576;-80
2021/11/19 04:50:24;;;;;;;;;17.33;12.00;;;;;12.00;68.55;102901.84;5030353;28;46583;-79
2021/11/19 04:52:50;;;;;;;;;12.67;12.00;;;;;12.06;68.70;102917.06;4999857;28;45449;-79
2021/11/19 04:55:16;;;;;;;;;18.67;16.00;;;;;12.04;69.03;102914.38;5017322;28;45516;-82
2021/11/19 04:57:42;;;;;;;;;15.33;13.67;;;;;12.08;68.82;102910.06;5022659;28;45359;-81
2021/11/19 05:00:14;;;;;;;;;12.33;11.67;;;;;12.07;68.97;102914.47;5024817;28;48402;-79
2021/11/19 05:02:39;;;;;;;;;18.00;11.33;;;;;12.10;68.97;102919.00;5030766;28;45394;-80
2021/11/19 05:05:05;;;;;;;;;13.67;12.00;;;;;12.10;68.90;102911.06;5031081;28;45404;-81
2021/11/19 05:07:30;;;;;;;;;13.33;12.67;;;;;12.05;68.84;102902.03;5025113;28;45456;-79
2021/11/19 05:09:56;;;;;;;;;15.33;13.67;;;;;12.10;69.22;102915.47;5014730;28;60700;-79
2021/11/19 05:12:28;;;;;;;;;19.00;17.00;;;;;12.10;69.11;102908.41;4999279;28;59315;-79
2021/11/19 05:14:53;;;;;;;;;17.33;17.33;;;;;12.09;68.93;102917.22;5146004;22;45825;-80
2021/11/19 05:17:22;;;;;;;;;18.00;17.00;;;;;12.12;69.20;102911.09;5045617;28;45321;-79
2021/11/19 05:19:49;;;;;;;;;24.33;16.00;;;;;12.05;69.25;102895.00;5028142;28;47590;-80
2021/11/19 05:22:15;;;;;;;;;15.00;13.33;;;;;12.13;69.09;102905.84;5002605;28;45410;-79
2021/11/19 05:24:40;;;;;;;;;17.67;14.67;;;;;12.12;68.99;102901.41;5041914;28;54264;-80
2021/11/19 05:27:06;;;;;;;;;13.00;13.00;;;;;12.10;68.95;102895.16;5039007;28;45444;-80
2021/11/19 05:29:31;;;;;;;;;22.50;15.00;;;;;12.14;68.90;102898.81;5018483;28;47403;-79
2021/11/19 05:31:57;;;;;;;;;19.00;16.33;;;;;12.16;68.81;102902.44;5041594;28;60740;-79
2021/11/19 05:34:22;;;;;;;;;14.67;13.67;;;;;12.17;68.94;102901.59;5036412;28;45472;-80
2021/11/19 05:36:48;;;;;;;;;20.33;12.67;;;;;12.16;69.08;102905.09;5018221;28;45519;-78
2021/11/19 05:39:13;;;;;;;;;17.00;16.00;;;;;12.16;69.13;102903.34;5018342;28;45367;-78
2021/11/19 05:41:39;;;;;;;;;14.33;14.00;;;;;12.15;69.03;102900.66;5022059;28;45509;-76
2021/11/19 05:44:04;;;;;;;;;15.67;15.00;;;;;12.17;69.28;102904.25;5046674;28;45694;-77
2021/11/19 05:46:31;;;;;;;;;18.67;15.33;;;;;12.17;69.21;102899.84;5040072;28;45418;-77
2021/11/19 05:48:57;;;;;;;;;17.67;15.67;;;;;12.16;69.22;102908.63;5040345;28;47437;-77
2021/11/19 05:51:23;;;;;;;;;17.67;16.00;;;;;12.17;69.12;102914.84;5045870;28;45433;-78
2021/11/19 05:53:49;;;;;;;;;15.33;13.00;;;;;12.16;69.31;102913.94;5043541;28;45507;-78
2021/11/19 05:56:15;;;;;;;;;19.33;17.00;;;;;12.15;68.99;102914.78;5036544;28;45393;-81
2021/11/19 05:58:40;;;;;;;;;17.00;14.00;;;;;12.17;69.12;102915.72;5001830;28;46750;-79
2021/11/19 06:01:11;;;;;;;;;18.00;16.67;;;;;12.19;69.17;102913.13;5040466;28;45485;-80
2021/11/19 06:03:37;;;;;;;;;20.67;14.00;;;;;12.16;69.33;102903.34;5043654;28;45219;-80
2021/11/19 06:06:05;;;;;;;;;21.67;18.33;;;;;12.18;69.25;102917.53;5016334;28;45552;-79
2021/11/19 06:08:30;;;;;;;;;19.00;16.00;;;;;12.19;69.32;102910.47;5034273;28;46444;-79
2021/11/19 06:10:59;;;;;;;;;20.00;16.00;;;;;12.14;69.30;102912.06;5027787;28;45487;-77
2021/11/19 06:13:35;;;;;;;;;17.67;15.33;;;;;12.13;69.39;102904.97;5003600;28;45459;-77
2021/11/19 06:16:05;;;;;;;;;17.00;15.67;;;;;12.18;69.37;102919.28;5032679;28;45553;-76
2021/11/19 06:18:33;;;;;;;;;20.33;15.67;;;;;12.17;69.38;102926.31;5020921;28;47442;-78
2021/11/19 06:21:02;;;;;;;;;18.00;14.67;;;;;12.19;69.53;102921.06;5001758;28;45546;-77
2021/11/19 06:23:33;;;;;;;;;20.67;16.33;;;;;12.18;69.54;102911.34;5032179;28;45355;-77
2021/11/19 06:25:59;;;;;;;;;17.00;16.00;;;;;12.20;69.53;102925.56;5036023;28;45390;-77
2021/11/19 06:28:30;;;;;;;;;19.00;18.67;;;;;12.15;69.33;102917.44;5043147;28;46194;-76
2021/11/19 06:30:56;;;;;;;;;18.00;15.67;;;;;12.02;69.78;102910.75;5020741;28;45635;-75
2021/11/19 06:33:22;;;;;;;;;18.00;14.67;;;;;11.94;70.42;102922.81;5048431;28;45491;-75
2021/11/19 06:35:48;;;;;;;;;18.00;16.33;;;;;11.83;70.51;102920.59;5039348;28;45554;-75
2021/11/19 06:38:13;;;;;;;;;18.33;18.00;;;;;11.70;70.95;102925.34;5034488;28;47342;-75
2021/11/19 06:40:38;;;;;;;;;15.33;13.33;;;;;11.65;71.10;102931.28;5038875;28;45397;-74
2021/11/19 06:43:04;;;;;;;;;17.00;16.00;;;;;11.53;71.43;102935.25;5043989;28;54604;-75
2021/11/19 06:45:30;;;;;;;;;18.33;17.00;;;;;11.48;71.60;102934.16;5025647;28;45603;-75
2021/11/19 06:47:56;;;;;;;;;22.00;17.00;;;;;11.46;71.35;102930.56;5035525;28;47891;-74
2021/11/19 06:50:23;;;;;;;;;25.25;16.75;;;;;11.50;71.83;102934.22;5031951;28;45580;-74
2021/11/19 06:52:49;;;;;;;;;22.33;14.67;;;;;11.46;71.70;102933.19;5038741;28;45407;-78
2021/11/19 06:55:15;;;;;;;;;21.00;17.75;;;;;11.42;72.14;102930.38;5032120;28;46605;-74
2021/11/19 06:57:40;;;;;;;;;27.00;16.33;;;;;11.43;72.30;102938.34;5034512;28;47317;-75
2021/11/19 07:00:09;;;;;;;;;22.00;17.00;;;;;11.42;72.34;102933.91;5038377;28;46002;-75
2021/11/19 07:02:34;;;;;;;;;22.00;17.67;;;;;11.42;72.10;102935.66;5035676;28;45605;-75
2021/11/19 07:05:00;;;;;;;;;26.00;17.00;;;;;11.41;72.28;102932.09;5040589;28;51875;-75
2021/11/19 07:07:25;;;;;;;;;19.33;16.33;;;;;11.41;72.11;102937.41;5038768;28;60215;-76
2021/11/19 07:09:50;;;;;;;;;17.33;13.33;;;;;11.46;72.25;102954.38;5043570;28;49265;-75
2021/11/19 07:12:16;;;;;;;;;17.00;16.00;;;;;11.50;72.31;102951.00;5046886;28;50151;-76
2021/11/19 07:14:42;;;;;;;;;18.33;15.33;;;;;11.57;72.12;102959.19;5040693;28;45499;-76
2021/11/19 07:17:07;;;;;;;;;17.67;16.33;;;;;11.61;71.75;102962.03;4996078;28;47415;-76
2021/11/19 07:19:33;;;;;;;;;17.33;16.67;;;;;11.65;71.73;102961.28;5016300;28;45870;-76
2021/11/19 07:21:59;;;;;;;;;23.00;17.00;;;;;11.66;71.72;102951.59;5016723;28;45560;-76
2021/11/19 07:24:25;;;;;;;;;19.33;17.00;;;;;11.73;71.51;102966.91;5016802;28;45626;-76
2021/11/19 07:26:51;;;;;;;;;17.67;15.00;;;;;11.77;71.47;102969.75;5019669;28;47291;-77
2021/11/19 07:29:16;;;;;;;;;19.67;16.00;;;;;11.74;71.46;102953.75;4996385;28;45454;-78
2021/11/19 07:31:41;;;;;;;;;15.33;14.33;;;;;11.85;71.30;102964.78;5013854;28;45266;-80
2021/11/19 07:34:07;;;;;;;;;20.00;16.67;;;;;11.88;71.54;102974.59;4980531;28;45643;-81
2021/11/19 07:36:33;;;;;;;;;17.67;17.00;;;;;11.91;71.18;102978.25;5017838;28;46712;-82
2021/11/19 07:38:59;;;;;;;;;17.75;14.50;;;;;11.97;70.84;102980.25;4975430;28;45568;-79
2021/11/19 07:41:24;;;;;;;;;15.33;14.00;;;;;11.98;70.85;102980.31;5017045;28;45353;-80
2021/11/19 07:43:50;;;;;;;;;17.33;14.33;;;;;12.02;70.85;102979.59;4994168;28;45567;-80
2021/11/19 07:46:18;;;;;;;;;15.00;13.33;;;;;12.06;70.68;102976.22;4981572;28;46677;-80
2021/11/19 07:48:43;;;;;;;;;19.33;16.33;;;;;12.12;70.76;102983.50;5001026;28;45881;-81
2021/11/19 07:51:15;;;;;;;;;16.67;16.67;;;;;12.10;70.85;102969.31;4979706;28;47298;-81
2021/11/19 07:53:40;;;;;;;;;16.33;12.67;;;;;12.18;70.46;102982.84;5001972;28;46702;-79
2021/11/19 07:56:06;;;;;;;;;23.33;18.67;;;;;12.21;70.56;102996.22;5002925;28;47446;-81
2021/11/19 07:58:32;;;;;;;;;17.33;13.33;;;;;12.12;70.47;102974.66;5002621;28;45517;-83
2021/11/19 08:00:57;;;;;;;;;24.67;19.67;;;;;12.26;70.56;102994.66;5001033;28;45433;-81
2021/11/19 08:03:23;;;;;;;;;19.00;18.25;;;;;12.28;70.68;102999.16;5016820;28;46004;-79
2021/11/19 08:05:50;;;;;;;;;31.75;27.00;;;;;12.27;70.29;102986.75;5006676;28;46473;-78
2021/11/19 08:08:16;;;;;;;;;28.50;24.25;;;;;12.31;70.12;102996.63;5014249;28;45453;-78
2021/11/19 08:10:41;;;;;;;;;31.25;25.50;;;;;12.36;70.19;102998.53;5014156;28;45549;-79
2021/11/19 08:13:08;;;;;;;;;30.75;26.50;;;;;12.37;70.47;103003.91;5015304;28;46269;-78
2021/11/19 08:15:33;;;;;;;;;28.25;24.50;;;;;12.39;70.30;103007.50;4984459;28;46630;-79
2021/11/19 08:17:59;;;;;;;;;20.67;20.67;;;;;12.38;69.86;103003.06;5008372;28;45358;-79
2021/11/19 08:20:37;;;;;;;;;29.00;27.75;;;;;12.41;70.16;102992.59;5005908;28;45495;-80
2021/11/19 08:23:07;;;;;;;;;24.75;20.00;;;;;12.46;70.16;103004.25;5014033;28;45512;-78
2021/11/19 08:25:33;;;;;;;;;26.25;23.75;;;;;12.48;69.77;103006.97;5014687;28;47228;-79
2021/11/19 08:27:58;;;;;;;;;26.50;21.75;;;;;12.48;69.87;103001.66;5013237;28;45496;-79
2021/11/19 08:30:31;;;;;;;;;27.75;22.50;;;;;12.43;69.82;102982.94;5013616;28;45816;-77
2021/11/19 08:32:58;;;;;;;;;32.00;26.75;;;;;12.53;69.78;102994.81;5010884;28;45514;-79
2021/11/19 08:35:24;;;;;;;;;29.50;23.75;;;;;12.49;69.64;102988.47;5009616;28;46732;-79
2021/11/19 08:37:51;;;;;;;;;30.75;23.75;;;;;12.56;69.48;103001.09;5010691;28;45469;-80
2021/11/19 08:40:16;;;;;;;;;29.00;23.25;;;;;12.59;69.45;103000.31;5015405;28;45578;-79
2021/11/19 08:42:43;;;;;;;;;31.50;26.25;;;;;12.59;69.54;102992.38;5016412;28;45424;-81
2021/11/19 08:45:09;;;;;;;;;30.50;24.50;;;;;12.64;69.69;102995.19;5016299;28;47887;-80
2021/11/19 08:47:35;;;;;;;;;29.00;28.25;;;;;12.67;69.25;102993.53;5014531;28;45397;-79
2021/11/19 08:50:02;;;;;;;;;37.75;31.25;;;;;12.67;69.14;103000.59;5011120;28;50533;-80
2021/11/19 08:52:27;;;;;;;;;30.33;27.33;;;;;12.71;69.12;103000.78;4978557;28;45514;-79
2021/11/19 08:54:53;;;;;;;;;38.00;28.67;;;;;12.69;68.78;102986.56;5012455;28;46394;-79
2021/11/19 08:57:21;;;;;;;;;35.33;26.67;;;;;12.75;69.17;102993.84;4974693;28;47245;-79
2021/11/19 08:59:47;;;;;;;;;34.50;25.50;;;;;12.74;68.89;102989.41;5009081;28;45476;-79
2021/11/19 09:02:14;;;;;;;;;13.75;10.25;;;;;12.78;68.98;102994.88;5009448;28;45508;-79
2021/11/19 09:04:39;;;;;;;;;36.25;28.50;;;;;12.82;69.08;102995.84;5012282;28;47178;-79
2021/11/19 09:07:05;;;;;;;;;30.75;23.00;;;;;12.83;68.70;102997.66;5008551;28;45568;-78
2021/11/19 09:09:30;;;;;;;;;28.75;25.50;;;;;12.87;68.49;102996.03;5015239;28;52400;-78
2021/11/19 09:11:56;;;;;;;;;29.75;25.50;;;;;12.89;68.63;102999.63;5021812;28;45295;-78
2021/11/19 09:14:22;;;;;;;;;29.00;26.00;;;;;12.92;68.65;102998.00;5010582;28;45739;-79
2021/11/19 09:17:28;;;;;;;;;32.25;27.25;;;;;12.91;68.64;102992.66;5028653;28;45597;-79
2021/11/19 09:20:14;;;;;;;;;34.00;28.50;;;;;12.99;68.04;103010.63;5017028;28;45531;-78
2021/11/19 09:22:46;;;;;;;;;28.50;25.75;;;;;12.98;68.40;103011.47;5016303;28;45503;-78
2021/11/19 09:25:13;;;;;;;;;31.50;27.50;;;;;13.02;68.45;103009.84;5027378;28;46640;-80
2021/11/19 09:27:39;;;;;;;;;29.25;27.25;;;;;13.01;68.11;103001.00;4984731;28;45410;-79
2021/11/19 09:30:16;;;;;;;;;33.25;28.00;;;;;13.07;68.05;103009.16;5009307;28;45414;-78
2021/11/19 09:32:43;;;;;;;;;31.75;25.00;;;;;13.10;68.37;103017.25;5034084;28;45556;-79
2021/11/19 09:35:09;;;;;;;;;31.00;28.25;;;;;13.13;68.21;103010.22;5030402;28;47282;-79
2021/11/19 09:37:34;;;;;;;;;32.00;25.50;;;;;13.18;67.85;103011.28;5026923;28;45645;-79
2021/11/19 09:40:00;;;;;;;;;39.50;29.50;;;;;13.20;68.12;103018.44;5034252;28;51831;-79
2021/11/19 09:43:14;;;;;;;;;34.25;26.00;;;;;13.20;67.99;103009.59;5024463;28;53358;-78
2021/11/19 09:46:01;;;;;;;;;38.00;29.75;;;;;13.26;67.36;103018.72;5013402;28;46459;-79
2021/11/19 09:48:32;;;;;;;;;34.75;30.25;;;;;13.27;67.82;103017.88;5026660;28;45551;-79
2021/11/19 09:51:40;;;;;;;;;36.25;30.25;;;;;13.29;67.62;103018.81;5030692;28;45463;-78
2021/11/19 09:54:43;;;;;;;;;35.50;28.00;;;;;13.30;67.53;103010.00;4952307;28;45931;-77
2021/11/19 09:57:40;;;;;;;;;30.75;27.25;;;;;13.29;67.46;103017.91;5032260;28;45693;-78
2021/11/19 10:00:20;;;;;;;;;30.25;26.75;;;;;13.28;67.08;103010.81;5033797;28;45642;-78
2021/11/19 10:03:32;;;;;;;;;35.25;29.75;;;;;13.27;67.35;103015.22;5034553;28;47332;-77
2021/11/19 10:06:07;;;;;;;;;32.50;28.75;;;;;13.28;67.29;103006.41;5000344;28;45484;-77
2021/11/19 10:08:52;;;;;;;;;29.33;25.00;;;;;13.29;67.17;103002.88;4983522;28;47056;-76
2021/11/19 10:12:02;;;;;;;;;29.50;29.25;;;;;13.38;66.85;103004.06;5028200;28;45524;-77
2021/11/19 10:14:52;;;;;;;;;30.00;25.50;;;;;13.39;67.20;103005.88;4980568;28;45356;-77
2021/11/19 10:17:55;;;;;;;;;33.25;31.75;;;;;13.48;66.86;103012.41;4989629;28;45653;-77
2021/11/19 10:20:27;;;;;;;;;28.25;25.50;;;;;13.50;66.60;103001.81;5024095;28;46602;-77
2021/11/19 10:23:07;;;;;;;;;32.75;26.25;;;;;13.53;66.71;103001.91;5016903;28;45571;-78
2021/11/19 10:26:01;;;;;;;;;28.00;24.00;;;;;13.58;66.81;103000.31;5022144;28;45627;-78
2021/11/19 10:28:37;;;;;;;;;34.75;26.75;;;;;13.62;66.78;102997.81;5014969;28;45544;-78
2021/11/19 10:31:02;;;;;;;;;32.25;23.75;;;;;13.67;65.94;102994.41;5000210;28;47692;-77
2021/11/19 10:33:30;;;;;;;;;29.00;26.67;;;;;13.65;65.77;102993.47;5016298;28;51829;-77
2021/11/19 10:36:04;;;;;;;;;23.25;23.25;;;;;13.67;66.15;102989.09;4997693;28;45501;-77
2021/11/19 10:39:00;;;;;;;;;33.50;24.00;;;;;13.70;66.29;102995.44;5018267;28;45747;-76
2021/11/19 10:41:53;;;;;;;;;30.00;27.33;;;;;13.73;66.12;102992.84;5003581;28;46598;-79
2021/11/19 10:44:44;;;;;;;;;26.67;23.33;;;;;13.75;66.18;102993.81;5014235;28;45437;-76
2021/11/19 10:47:37;;;;;;;;;28.25;24.50;;;;;13.74;66.32;102986.72;4993631;28;45676;-83
2021/11/19 10:50:08;;;;;;;;;33.00;29.00;;;;;13.80;65.73;102994.88;5016395;28;45390;-78
2021/11/19 10:52:58;;;;;;;;;30.75;28.50;;;;;13.83;66.11;102987.00;5019271;28;46843;-77
2021/11/19 10:55:26;;;;;;;;;30.50;23.50;;;;;13.86;65.53;102988.84;5017074;28;45400;-79
2021/11/19 10:58:22;;;;;;;;;33.25;27.50;;;;;13.85;65.77;102979.09;5018012;28;45600;-79
2021/11/19 11:01:00;;;;;;;;;35.75;29.50;;;;;13.92;65.93;102988.16;4978481;28;45636;-78
2021/11/19 11:04:02;;;;;;;;;41.00;29.25;;;;;13.96;65.48;102980.34;5018006;28;47618;-78
2021/11/19 11:06:38;;;;;;;;;39.00;29.33;;;;;13.99;65.75;102977.75;4997901;28;45549;-80
2021/11/19 11:09:17;;;;;;;;;27.00;25.67;;;;;14.01;65.41;102980.44;5011086;28;45314;-78
2021/11/19 11:11:43;;;;;;;;;30.00;27.67;;;;;14.00;65.20;102970.69;5015714;28;45335;-79
2021/11/19 11:14:08;;;;;;;;;30.33;25.00;;;;;14.05;65.09;102980.59;5009704;28;51264;-78
2021/11/19 11:16:41;;;;;;;;;32.25;26.25;;;;;14.08;65.16;102980.72;5020796;28;45362;-78
2021/11/19 11:19:10;;;;;;;;;37.33;24.67;;;;;14.10;65.13;102981.66;5020325;28;45662;-76
2021/11/19 11:21:50;;;;;;;;;33.50;25.25;;;;;14.11;64.83;102972.84;5039475;28;45576;-78
2021/11/19 11:24:55;;;;;;;;;26.75;25.50;;;;;14.15;65.43;102977.38;5035457;28;46581;-76